Bedford, New Hampshire
Current Conditions -  °F | °C
As of 5:53 PM on Wednesday 22 Oct 2014 (Local Time) from KMHT Reporting Station
Light Rain Light Rain  
Wind Chill: 43°   Ceiling: 1100
Heat Index: 49°   Visibility: 4mi
Dew Point: 44°   Wind: 17mph
Humidity: 83%   Direction: 20°NNE
Pressure: 29.96"   Gusts: 30mph
Location:  42.96°N, 71.49°W
Report Text: KMHT 222153Z 02015G26KT 4SM -RA BKN011 OVC017 09/07 A2996 RMK AO2 PK WND 03029/2122 SLP159 P0000 T00940067
Loading
Personal Weather Stations






























Interactive Weather Map
Tropical Storm Tracking
New forecast layout! Learn more

10-Day Weather Forecast

Advertisements
Track Severe Weather on mobile